createdAt,value
2023-01-29T00:00:22.230Z,103232.16
2023-01-29T00:02:48.733Z,103224.34
2023-01-29T00:05:26.885Z,103220.00
2023-01-29T00:07:53.964Z,103220.84
2023-01-29T00:10:20.386Z,103214.78
2023-01-29T00:12:46.765Z,103205.25
2023-01-29T00:15:13.186Z,103203.50
2023-01-29T00:17:39.543Z,103200.03
2023-01-29T00:20:06.502Z,103188.78
2023-01-29T00:22:32.864Z,103190.53
2023-01-29T00:24:59.395Z,103186.19
2023-01-29T00:27:25.796Z,103179.28
2023-01-29T00:30:11.845Z,103176.66
2023-01-29T00:32:39.589Z,103175.78
2023-01-29T00:35:07.385Z,103175.72
2023-01-29T00:37:33.798Z,103182.69
2023-01-29T00:40:00.364Z,103191.34
2023-01-29T00:42:45.191Z,103189.63
2023-01-29T00:45:12.684Z,103190.53
2023-01-29T00:47:39.103Z,103191.38
2023-01-29T00:50:09.437Z,103188.78
2023-01-29T00:52:36.752Z,103176.66
2023-01-29T00:55:04.952Z,103180.97
2023-01-29T00:57:33.562Z,103180.97
2023-01-29T01:00:00.410Z,103175.78
2023-01-29T01:02:46.185Z,103167.97
2023-01-29T01:05:19.291Z,103175.78
2023-01-29T01:07:52.945Z,103169.72
2023-01-29T01:10:39.566Z,103167.13
2023-01-29T01:13:07.182Z,103167.97
2023-01-29T01:15:40.091Z,103167.13
2023-01-29T01:18:06.907Z,103161.91
2023-01-29T01:20:35.638Z,103158.47
2023-01-29T01:23:02.363Z,103158.47
2023-01-29T01:25:28.880Z,103157.59
2023-01-29T01:27:56.988Z,103159.34
2023-01-29T01:30:24.210Z,103161.97
2023-01-29T01:32:50.783Z,103164.56
2023-01-29T01:35:17.401Z,103171.50
2023-01-29T01:37:43.819Z,103171.47
2023-01-29T01:40:18.239Z,103174.94
2023-01-29T01:42:49.301Z,103174.97
2023-01-29T01:45:35.805Z,103176.69
2023-01-29T01:48:21.009Z,103174.97
2023-01-29T01:50:59.582Z,103171.47
2023-01-29T01:53:34.353Z,103179.31
2023-01-29T01:56:06.613Z,103168.88
2023-01-29T01:58:40.891Z,103178.41
2023-01-29T02:01:09.221Z,103178.41
2023-01-29T02:04:06.415Z,103171.50
2023-01-29T02:06:53.751Z,103170.63
2023-01-29T02:09:34.818Z,103168.00
2023-01-29T02:12:04.134Z,103169.72
2023-01-29T02:14:31.941Z,103174.06
2023-01-29T02:17:01.396Z,103170.59
2023-01-29T02:19:58.275Z,103164.53
2023-01-29T02:22:35.725Z,103176.66
2023-01-29T02:25:16.091Z,103167.16
2023-01-29T02:27:48.625Z,103169.75
2023-01-29T02:30:30.744Z,103171.47
2023-01-29T02:33:07.522Z,103168.00
2023-01-29T02:35:46.131Z,103177.53
2023-01-29T02:38:31.800Z,103187.88
2023-01-29T02:41:07.990Z,103190.44
2023-01-29T02:43:47.898Z,103186.97
2023-01-29T02:46:39.711Z,103187.00
2023-01-29T02:49:34.872Z,103191.34
2023-01-29T02:52:16.929Z,103191.34
2023-01-29T02:55:10.493Z,103199.13
2023-01-29T02:57:43.639Z,103193.94
2023-01-29T03:00:21.099Z,103191.34
2023-01-29T03:03:41.774Z,103189.59
2023-01-29T03:06:22.791Z,103184.38
2023-01-29T03:08:56.356Z,103180.94
2023-01-29T03:11:22.965Z,103178.34
2023-01-29T03:13:58.440Z,103174.88
2023-01-29T03:16:42.902Z,103176.59
2023-01-29T03:19:39.673Z,103162.75
2023-01-29T03:22:08.951Z,103161.88
2023-01-29T03:24:58.963Z,103159.28
2023-01-29T03:27:48.245Z,103153.22
2023-01-29T03:30:36.959Z,103151.47
2023-01-29T03:33:09.065Z,103148.00
2023-01-29T03:35:41.832Z,103142.81
2023-01-29T03:38:11.363Z,103134.13
2023-01-29T03:40:49.346Z,103129.75
2023-01-29T03:43:35.509Z,103128.03
2023-01-29T03:46:10.352Z,103126.31
2023-01-29T03:48:43.940Z,103132.41
2023-01-29T03:51:12.980Z,103119.38
2023-01-29T03:53:54.698Z,103113.31
2023-01-29T03:56:33.948Z,103119.34
2023-01-29T03:59:41.092Z,103123.72
2023-01-29T04:02:18.020Z,103118.50
2023-01-29T04:04:46.953Z,103113.31
2023-01-29T04:07:17.562Z,103115.91
2023-01-29T04:09:48.700Z,103102.91
2023-01-29T04:12:20.412Z,103100.31
2023-01-29T04:14:49.684Z,103094.25
2023-01-29T04:17:21.505Z,103089.88
2023-01-29T04:19:47.972Z,103096.81
2023-01-29T04:22:22.556Z,103103.72
2023-01-29T04:24:50.852Z,103094.16
2023-01-29T04:27:29.758Z,103101.13
2023-01-29T04:30:26.968Z,103092.47
2023-01-29T04:33:18.069Z,103095.91
2023-01-29T04:36:00.049Z,103083.75
2023-01-29T04:38:50.864Z,103096.78
2023-01-29T04:41:28.297Z,103082.91
2023-01-29T04:44:10.844Z,103087.22
2023-01-29T04:46:46.366Z,103086.38
2023-01-29T04:49:31.302Z,103086.31
2023-01-29T04:52:09.009Z,103076.78
2023-01-29T04:54:43.477Z,103078.50
2023-01-29T04:57:34.546Z,103078.53
2023-01-29T05:00:08.494Z,103072.44
2023-01-29T05:02:39.309Z,103062.03
2023-01-29T05:05:07.736Z,103062.94
2023-01-29T05:07:37.065Z,103059.47
2023-01-29T05:10:08.412Z,103058.59
2023-01-29T05:12:37.163Z,103060.31
2023-01-29T05:15:09.076Z,103058.59
2023-01-29T05:17:35.526Z,103060.28
2023-01-29T05:20:01.956Z,103063.78
2023-01-29T05:22:29.344Z,103060.28
2023-01-29T05:24:55.735Z,103070.72
2023-01-29T05:27:50.740Z,103066.38
2023-01-29T05:30:17.574Z,103079.38
2023-01-29T05:32:44.086Z,103078.53
2023-01-29T05:35:10.615Z,103081.09
2023-01-29T05:37:37.070Z,103079.38
2023-01-29T05:40:03.763Z,103068.09
2023-01-29T05:42:30.670Z,103076.78
2023-01-29T05:44:57.024Z,103071.56
2023-01-29T05:47:23.519Z,103070.72
2023-01-29T05:49:49.840Z,103080.22
2023-01-29T05:52:16.260Z,103081.13
2023-01-29T05:54:42.748Z,103081.13
2023-01-29T05:57:09.134Z,103076.81
2023-01-29T05:59:35.453Z,103062.03
2023-01-29T06:02:01.921Z,103050.78
2023-01-29T06:04:28.362Z,103047.28
2023-01-29T06:06:54.947Z,103051.63
2023-01-29T06:09:21.276Z,103046.41
2023-01-29T06:11:47.661Z,103040.34
2023-01-29T06:14:13.994Z,103047.28
2023-01-29T06:16:40.420Z,103036.00
2023-01-29T06:19:07.088Z,103040.34
2023-01-29T06:21:33.543Z,103043.84
2023-01-29T06:24:00.022Z,103030.84
2023-01-29T06:26:26.478Z,103029.09
2023-01-29T06:28:52.888Z,103036.03
2023-01-29T06:31:36.913Z,103027.34
2023-01-29T06:34:04.695Z,103011.75
2023-01-29T06:36:31.105Z,103024.78
2023-01-29T06:38:57.514Z,103019.59
2023-01-29T06:41:25.356Z,103020.44
2023-01-29T06:43:52.032Z,103022.16
2023-01-29T06:46:18.387Z,103024.75
2023-01-29T06:48:44.731Z,103026.44
2023-01-29T06:51:11.772Z,103037.75
2023-01-29T06:53:39.334Z,103025.63
2023-01-29T06:56:06.531Z,103015.19
2023-01-29T06:58:33.115Z,103022.16
2023-01-29T07:01:15.531Z,103023.00
2023-01-29T07:03:51.817Z,103023.84
2023-01-29T07:06:18.668Z,103015.19
2023-01-29T07:08:45.520Z,103019.53
2023-01-29T07:11:12.577Z,103021.28
2023-01-29T07:13:39.037Z,103023.00
2023-01-29T07:16:06.707Z,103018.66
2023-01-29T07:18:33.281Z,103019.50
2023-01-29T07:21:04.463Z,103020.41
2023-01-29T07:23:30.828Z,103025.63
2023-01-29T07:26:01.126Z,103032.53
2023-01-29T07:28:27.539Z,103023.88
2023-01-29T07:30:58.622Z,103013.50
2023-01-29T07:33:25.404Z,103017.81
2023-01-29T07:35:52.236Z,103019.53
2023-01-29T07:38:18.731Z,103023.00
2023-01-29T07:40:45.184Z,103022.16
2023-01-29T07:43:11.662Z,103018.69
2023-01-29T07:45:39.892Z,103010.84
2023-01-29T07:48:09.738Z,103004.81
2023-01-29T07:50:36.627Z,103000.50
2023-01-29T07:53:03.620Z,102998.75
2023-01-29T07:55:31.047Z,102998.75
2023-01-29T07:57:59.395Z,102993.56
2023-01-29T08:00:26.018Z,102987.50
2023-01-29T08:02:52.759Z,102977.94
2023-01-29T08:05:20.110Z,102977.94
2023-01-29T08:07:51.558Z,102983.16
2023-01-29T08:10:27.820Z,102979.69
2023-01-29T08:12:59.261Z,102972.75
2023-01-29T08:15:26.240Z,102980.56
2023-01-29T08:20:39.985Z,102976.25
2023-01-29T08:23:10.140Z,102976.25
2023-01-29T08:25:36.640Z,102977.97
2023-01-29T08:28:04.516Z,102977.97
2023-01-29T08:30:32.832Z,102975.34
2023-01-29T08:32:59.214Z,102971.00
2023-01-29T08:35:26.330Z,102961.50
2023-01-29T08:38:03.573Z,102963.22
2023-01-29T08:40:32.230Z,102960.59
2023-01-29T08:43:04.548Z,102950.25
2023-01-29T08:45:34.052Z,102949.38
2023-01-29T08:48:00.506Z,102948.50
2023-01-29T08:50:26.999Z,102944.16
2023-01-29T08:52:59.075Z,102948.50
2023-01-29T08:55:26.161Z,102948.50
2023-01-29T08:57:52.538Z,102942.44
2023-01-29T09:00:19.542Z,102944.19
2023-01-29T09:02:46.025Z,102946.78
2023-01-29T09:05:12.409Z,102943.28
2023-01-29T09:07:38.779Z,102949.38
2023-01-29T09:10:05.748Z,102940.69
2023-01-29T09:12:32.103Z,102943.28
2023-01-29T09:14:58.444Z,102946.78
2023-01-29T09:17:24.761Z,102951.97
2023-01-29T09:19:52.944Z,102937.25
2023-01-29T09:22:20.270Z,102933.78
2023-01-29T09:24:46.672Z,102929.47
2023-01-29T09:27:13.562Z,102950.28
2023-01-29T09:29:39.998Z,102949.38
2023-01-29T09:32:06.924Z,102952.84
2023-01-29T09:34:33.665Z,102952.84
2023-01-29T09:37:00.189Z,102947.63
2023-01-29T09:39:26.564Z,102950.25
2023-01-29T09:42:01.878Z,102945.94
2023-01-29T09:44:40.463Z,102945.94
2023-01-29T09:47:12.763Z,102951.13
2023-01-29T09:49:47.867Z,102946.81
2023-01-29T09:52:55.764Z,102945.91
2023-01-29T09:55:28.554Z,102952.88
2023-01-29T09:57:59.279Z,102941.59
2023-01-29T10:00:30.565Z,102939.00
2023-01-29T10:03:21.057Z,102937.25
2023-01-29T10:05:56.457Z,102941.56
2023-01-29T10:08:46.718Z,102943.34
2023-01-29T10:11:26.459Z,102941.59
2023-01-29T10:14:14.524Z,102934.66
2023-01-29T10:17:06.959Z,102921.69
2023-01-29T10:19:42.463Z,102933.81
2023-01-29T10:22:43.425Z,102925.16
2023-01-29T10:25:19.666Z,102921.69
2023-01-29T10:27:53.149Z,102921.69
2023-01-29T10:30:47.423Z,102915.63
2023-01-29T10:33:49.481Z,102913.03
2023-01-29T10:36:34.044Z,102911.31
2023-01-29T10:39:00.540Z,102903.50
2023-01-29T10:41:40.959Z,102895.69
2023-01-29T10:44:36.391Z,102887.91
2023-01-29T10:47:29.258Z,102887.03
2023-01-29T10:50:15.297Z,102879.22
2023-01-29T10:53:18.724Z,102888.75
2023-01-29T10:56:23.584Z,102876.66
2023-01-29T10:59:05.294Z,102863.63
2023-01-29T11:01:31.837Z,102864.47
2023-01-29T11:04:03.613Z,102856.66
2023-01-29T11:06:32.844Z,102861.91
2023-01-29T11:09:33.157Z,102858.44
2023-01-29T11:12:10.518Z,102859.28
2023-01-29T11:14:47.962Z,102852.38
2023-01-29T11:17:16.807Z,102847.16
2023-01-29T11:19:46.137Z,102838.50
2023-01-29T11:22:13.733Z,102842.81
2023-01-29T11:24:40.128Z,102845.41
2023-01-29T11:27:33.589Z,102837.63
2023-01-29T11:30:00.143Z,102835.88
2023-01-29T11:32:30.457Z,102835.00
2023-01-29T11:34:56.762Z,102844.56
2023-01-29T11:37:23.705Z,102828.09
2023-01-29T11:39:50.573Z,102829.81
2023-01-29T11:42:22.396Z,102828.94
2023-01-29T11:44:49.393Z,102824.59
2023-01-29T11:47:26.908Z,102822.91
2023-01-29T11:50:00.900Z,102821.13
2023-01-29T11:52:36.043Z,102819.41
2023-01-29T11:55:07.095Z,102809.00
2023-01-29T11:57:38.724Z,102814.19
2023-01-29T12:00:17.836Z,102801.22
2023-01-29T12:03:10.488Z,102801.22
2023-01-29T12:05:39.201Z,102798.59
2023-01-29T12:08:17.061Z,102798.59
2023-01-29T12:10:44.367Z,102793.38
2023-01-29T12:13:10.870Z,102787.34
2023-01-29T12:15:41.945Z,102778.66
2023-01-29T12:18:29.987Z,102772.59
2023-01-29T12:21:03.365Z,102774.31
2023-01-29T12:23:41.683Z,102761.31
2023-01-29T12:26:15.932Z,102761.31
2023-01-29T12:28:54.679Z,102752.63
2023-01-29T12:31:32.607Z,102744.84
2023-01-29T12:34:25.160Z,102742.22
2023-01-29T12:37:15.164Z,102734.41
2023-01-29T12:39:41.644Z,102732.69
2023-01-29T12:42:22.933Z,102726.63
2023-01-29T12:44:57.612Z,102721.41
2023-01-29T12:47:47.129Z,102715.34
2023-01-29T12:50:28.272Z,102713.59
2023-01-29T12:53:05.074Z,102698.00
2023-01-29T12:55:38.145Z,102696.28
2023-01-29T12:58:12.686Z,102680.63
2023-01-29T13:00:43.399Z,102678.94
2023-01-29T13:03:27.560Z,102664.19
2023-01-29T13:06:17.151Z,102647.72
2023-01-29T13:08:53.762Z,102651.16
2023-01-29T13:11:31.484Z,102642.50
2023-01-29T13:14:07.973Z,102632.09
2023-01-29T13:16:40.586Z,102625.16
2023-01-29T13:19:21.056Z,102610.41
2023-01-29T13:21:48.602Z,102607.78
2023-01-29T13:24:18.445Z,102592.19
2023-01-29T13:26:46.919Z,102595.63
2023-01-29T13:29:31.752Z,102586.09
2023-01-29T13:32:00.676Z,102580.00
2023-01-29T13:34:31.689Z,102573.09
2023-01-29T13:37:01.475Z,102577.41
2023-01-29T13:39:35.158Z,102576.53
2023-01-29T13:42:14.907Z,102578.25
2023-01-29T13:44:41.525Z,102567.84
2023-01-29T13:47:12.152Z,102572.19
2023-01-29T13:49:53.390Z,102571.28
2023-01-29T13:52:40.972Z,102570.41
2023-01-29T13:55:22.329Z,102568.66
2023-01-29T13:57:52.310Z,102569.53
2023-01-29T14:00:20.309Z,102559.97
2023-01-29T14:02:55.778Z,102566.06
2023-01-29T14:05:31.492Z,102566.06
2023-01-29T14:07:59.347Z,102558.25
2023-01-29T14:10:30.776Z,102561.72
2023-01-29T14:13:03.070Z,102563.44
2023-01-29T14:15:34.651Z,102554.72
2023-01-29T14:18:24.970Z,102559.94
2023-01-29T14:21:00.231Z,102545.19
2023-01-29T14:23:41.972Z,102541.72
2023-01-29T14:26:43.759Z,102539.94
2023-01-29T14:29:18.798Z,102547.75
2023-01-29T14:32:06.228Z,102550.38
2023-01-29T14:34:49.373Z,102543.41
2023-01-29T14:37:15.680Z,102542.56
2023-01-29T14:39:45.099Z,102531.28
2023-01-29T14:42:25.843Z,102526.91
2023-01-29T14:45:00.165Z,102532.97
2023-01-29T14:47:32.631Z,102522.56
2023-01-29T14:50:01.897Z,102519.09
2023-01-29T14:52:50.513Z,102524.28
2023-01-29T14:55:30.947Z,102524.28
2023-01-29T14:57:58.412Z,102526.03
2023-01-29T15:00:29.141Z,102510.41
2023-01-29T15:03:02.332Z,102509.53
2023-01-29T15:05:37.466Z,102508.66
2023-01-29T15:08:13.669Z,102500.88
2023-01-29T15:11:10.724Z,102492.19
2023-01-29T15:13:47.837Z,102486.97
2023-01-29T15:16:24.187Z,102482.59
2023-01-29T15:18:54.936Z,102478.25
2023-01-29T15:21:21.443Z,102481.72
2023-01-29T15:23:48.713Z,102489.53
2023-01-29T15:26:24.779Z,102489.53
2023-01-29T15:29:05.046Z,102489.53
2023-01-29T15:31:32.234Z,102486.06
2023-01-29T15:34:04.752Z,102488.66
2023-01-29T15:36:32.036Z,102486.94
2023-01-29T15:39:17.155Z,102473.91
2023-01-29T15:41:44.700Z,102472.16
2023-01-29T15:44:22.592Z,102462.63
2023-01-29T15:46:57.109Z,102463.53
2023-01-29T15:49:37.975Z,102460.94
2023-01-29T15:52:08.195Z,102460.03
2023-01-29T15:54:35.970Z,102449.63
2023-01-29T15:57:03.517Z,102453.94
2023-01-29T15:59:34.621Z,102451.34
2023-01-29T16:02:35.294Z,102458.28
2023-01-29T16:05:02.520Z,102456.56
2023-01-29T16:07:29.975Z,102453.09
2023-01-29T16:09:57.402Z,102461.78
2023-01-29T16:12:24.421Z,102467.00
2023-01-29T16:14:51.535Z,102467.88
2023-01-29T16:17:30.574Z,102467.00
2023-01-29T16:19:59.218Z,102464.41
2023-01-29T16:22:30.525Z,102465.28
2023-01-29T16:25:02.020Z,102466.16
2023-01-29T16:27:30.917Z,102473.13
2023-01-29T16:29:57.691Z,102463.56
2023-01-29T16:32:24.284Z,102471.41
2023-01-29T16:34:57.516Z,102462.72
2023-01-29T16:37:30.505Z,102460.13
2023-01-29T16:39:57.580Z,102450.56
2023-01-29T16:42:31.390Z,102437.56
2023-01-29T16:45:06.050Z,102441.91
2023-01-29T16:47:41.510Z,102435.00
2023-01-29T16:50:54.896Z,102441.94
2023-01-29T16:53:24.443Z,102444.53
2023-01-29T16:55:52.319Z,102435.00
2023-01-29T16:58:28.136Z,102434.19
2023-01-29T17:01:03.560Z,102433.31
2023-01-29T17:03:33.225Z,102439.41
2023-01-29T17:06:09.068Z,102429.00
2023-01-29T17:08:36.070Z,102428.13
2023-01-29T17:11:03.076Z,102429.84
2023-01-29T17:13:42.667Z,102430.75
2023-01-29T17:16:28.034Z,102429.03
2023-01-29T17:18:54.801Z,102429.03
2023-01-29T17:21:21.331Z,102426.44
2023-01-29T17:23:47.746Z,102415.16
2023-01-29T17:26:15.060Z,102419.50
2023-01-29T17:28:41.937Z,102417.75
2023-01-29T17:31:08.847Z,102416.91
2023-01-29T17:33:42.299Z,102416.03
2023-01-29T17:36:14.266Z,102414.31
2023-01-29T17:38:41.133Z,102419.53
2023-01-29T17:41:11.548Z,102416.03
2023-01-29T17:43:38.010Z,102396.94
2023-01-29T17:46:04.829Z,102399.53
2023-01-29T17:48:31.811Z,102395.19
2023-01-29T17:51:03.669Z,102387.38
2023-01-29T17:53:44.556Z,102380.44
2023-01-29T17:56:23.542Z,102376.09
2023-01-29T17:58:49.992Z,102375.28
2023-01-29T18:01:16.470Z,102370.97
2023-01-29T18:03:42.927Z,102364.00
2023-01-29T18:06:12.500Z,102354.44
2023-01-29T18:08:39.705Z,102365.72
2023-01-29T18:11:06.289Z,102354.44
2023-01-29T18:13:32.915Z,102351.00
2023-01-29T18:15:59.426Z,102351.00
2023-01-29T18:18:25.863Z,102346.66
2023-01-29T18:20:52.340Z,102345.81
2023-01-29T18:23:18.809Z,102344.91
2023-01-29T18:25:45.350Z,102343.16
2023-01-29T18:28:17.150Z,102343.19
2023-01-29T18:30:47.007Z,102338.84
2023-01-29T18:33:14.293Z,102321.50
2023-01-29T18:35:40.768Z,102311.94
2023-01-29T18:38:07.155Z,102324.06
2023-01-29T18:40:33.621Z,102319.72
2023-01-29T18:43:00.878Z,102299.75
2023-01-29T18:45:28.678Z,102296.28
2023-01-29T18:47:55.424Z,102290.22
2023-01-29T18:50:26.198Z,102281.53
2023-01-29T18:52:55.793Z,102280.63
2023-01-29T18:55:23.388Z,102272.81
2023-01-29T18:58:25.851Z,102272.81
2023-01-29T19:00:40.346Z,102274.59
2023-01-29T19:03:06.811Z,102261.63
2023-01-29T19:05:34.003Z,102265.94
2023-01-29T19:08:00.899Z,102254.63
2023-01-29T19:10:27.377Z,102244.22
2023-01-29T19:12:53.771Z,102244.19
2023-01-29T19:15:21.940Z,102238.13
2023-01-29T19:17:49.568Z,102226.88
2023-01-29T19:20:16.049Z,102223.41
2023-01-29T19:22:42.438Z,102226.88
2023-01-29T19:25:09.408Z,102237.25
2023-01-29T19:27:35.856Z,102245.09
2023-01-29T19:30:05.416Z,102230.34
2023-01-29T19:32:32.320Z,102231.19
2023-01-29T19:34:58.795Z,102226.88
2023-01-29T19:37:25.469Z,102222.47
2023-01-29T19:39:52.020Z,102229.47
2023-01-29T19:42:20.305Z,102216.47
2023-01-29T19:44:46.690Z,102221.66
2023-01-29T19:47:13.204Z,102208.66
2023-01-29T19:49:40.496Z,102221.69
2023-01-29T19:52:14.655Z,102223.38
2023-01-29T19:54:46.119Z,102217.31
2023-01-29T19:57:12.536Z,102205.16
2023-01-29T19:59:38.997Z,102205.16
2023-01-29T20:02:05.510Z,102210.38
2023-01-29T20:04:32.284Z,102206.94
2023-01-29T20:06:59.417Z,102212.16
2023-01-29T20:09:25.925Z,102214.72
2023-01-29T20:11:52.440Z,102202.56
2023-01-29T20:14:18.890Z,102194.75
2023-01-29T20:16:45.302Z,102196.47
2023-01-29T20:19:13.667Z,102195.59
2023-01-29T20:21:41.765Z,102206.00
2023-01-29T20:24:12.155Z,102196.47
2023-01-29T20:26:38.952Z,102196.47
2023-01-29T20:29:06.387Z,102196.47
2023-01-29T20:31:33.611Z,102201.66
2023-01-29T20:34:00.238Z,102183.44
2023-01-29T20:36:26.723Z,102173.88
2023-01-29T20:38:53.145Z,102173.88
2023-01-29T20:41:19.636Z,102192.09
2023-01-29T20:43:47.140Z,102203.38
2023-01-29T20:46:13.861Z,102201.63
2023-01-29T20:48:41.896Z,102192.94
2023-01-29T20:51:15.533Z,102181.66
2023-01-29T20:53:45.033Z,102180.75
2023-01-29T20:56:12.125Z,102201.56
2023-01-29T20:58:40.763Z,102196.38
2023-01-29T21:01:09.378Z,102179.03
2023-01-29T21:03:35.812Z,102178.16
2023-01-29T21:06:02.273Z,102176.38
2023-01-29T21:08:28.699Z,102181.56
2023-01-29T21:10:55.058Z,102166.84
2023-01-29T21:13:21.550Z,102172.03
2023-01-29T21:15:50.943Z,102180.69
2023-01-29T21:18:17.543Z,102185.88
2023-01-29T21:20:44.483Z,102184.13
2023-01-29T21:23:11.138Z,102164.16
2023-01-29T21:25:38.613Z,102182.38
2023-01-29T21:28:06.054Z,102185.81
2023-01-29T21:30:32.930Z,102191.88
2023-01-29T21:32:59.639Z,102172.78
2023-01-29T21:35:25.992Z,102167.53
2023-01-29T21:37:52.396Z,102169.25
2023-01-29T21:40:20.115Z,102170.09
2023-01-29T21:43:05.764Z,102176.13
2023-01-29T21:45:34.162Z,102171.78
2023-01-29T21:48:01.367Z,102150.03
2023-01-29T21:50:27.769Z,102124.84
2023-01-29T21:52:54.142Z,102121.38
2023-01-29T21:55:20.549Z,102093.53
2023-01-29T21:57:47.030Z,102091.78
2023-01-29T22:00:13.741Z,102070.06
2023-01-29T22:02:40.399Z,102056.16
2023-01-29T22:05:18.751Z,102050.06
2023-01-29T22:07:45.640Z,102038.75
2023-01-29T22:10:12.456Z,102041.38
2023-01-29T22:12:39.736Z,102031.81
2023-01-29T22:15:07.569Z,102030.91
2023-01-29T22:17:34.252Z,102060.44
2023-01-29T22:20:01.066Z,102065.63
2023-01-29T22:22:27.602Z,102055.16
2023-01-29T22:24:55.074Z,102044.72
2023-01-29T22:27:21.501Z,102038.63
2023-01-29T22:29:47.918Z,102033.41
2023-01-29T22:32:14.417Z,102037.75
2023-01-29T22:34:40.811Z,102048.16
2023-01-29T22:37:07.461Z,102036.00
2023-01-29T22:39:33.953Z,102031.66
2023-01-29T22:42:00.413Z,102023.81
2023-01-29T22:44:26.782Z,102012.53
2023-01-29T22:46:53.174Z,102009.88
2023-01-29T22:49:19.721Z,102008.13
2023-01-29T22:51:47.145Z,102000.28
2023-01-29T22:54:15.476Z,101991.63
2023-01-29T22:56:41.881Z,101992.44
2023-01-29T22:59:10.031Z,101989.78
2023-01-29T23:01:36.465Z,101981.09
2023-01-29T23:04:02.859Z,102010.56
2023-01-29T23:06:29.228Z,102011.41
2023-01-29T23:08:55.680Z,102005.31
2023-01-29T23:11:23.497Z,101995.69
2023-01-29T23:13:52.644Z,101993.06
2023-01-29T23:16:21.292Z,101993.03
2023-01-29T23:18:53.040Z,101973.94
2023-01-29T23:21:21.167Z,101974.78
2023-01-29T23:23:47.519Z,101977.31
2023-01-29T23:26:33.687Z,101978.16
2023-01-29T23:29:00.378Z,101967.66
2023-01-29T23:31:26.886Z,101948.53
2023-01-29T23:33:53.296Z,101946.75
2023-01-29T23:36:19.699Z,101921.53
2023-01-29T23:38:46.242Z,101918.00
2023-01-29T23:41:12.634Z,101923.94
2023-01-29T23:43:39.012Z,101926.41
2023-01-29T23:46:05.607Z,101909.91
2023-01-29T23:48:31.991Z,101917.72
2023-01-29T23:50:58.384Z,101920.31
2023-01-29T23:53:24.806Z,101917.69
2023-01-29T23:56:02.413Z,101911.56
2023-01-29T23:58:29.829Z,101909.78
